sensor_id;sensor_type;location;lat;lon;timestamp;P1;durP1;ratioP1;P2;durP2;ratioP2
59040;SDS011;44825;53.200;6.448;2024-02-23T00:00:50;7.43;;;1.13;;
59040;SDS011;44825;53.200;6.448;2024-02-23T00:03:17;6.90;;;1.00;;
59040;SDS011;44825;53.200;6.448;2024-02-23T00:05:43;6.47;;;0.93;;
59040;SDS011;44825;53.200;6.448;2024-02-23T00:08:09;4.47;;;0.85;;
59040;SDS011;44825;53.200;6.448;2024-02-23T00:10:35;5.88;;;0.88;;
59040;SDS011;44825;53.200;6.448;2024-02-23T00:13:01;6.22;;;0.95;;
59040;SDS011;44825;53.200;6.448;2024-02-23T00:15:27;3.55;;;0.63;;
59040;SDS011;44825;53.200;6.448;2024-02-23T00:17:53;4.78;;;0.90;;
59040;SDS011;44825;53.200;6.448;2024-02-23T00:20:19;4.53;;;0.80;;
59040;SDS011;44825;53.200;6.448;2024-02-23T00:22:45;5.80;;;0.70;;
59040;SDS011;44825;53.200;6.448;2024-02-23T00:25:11;7.60;;;1.10;;
59040;SDS011;44825;53.200;6.448;2024-02-23T00:27:38;3.95;;;0.68;;
59040;SDS011;44825;53.200;6.448;2024-02-23T00:30:06;6.25;;;0.88;;
59040;SDS011;44825;53.200;6.448;2024-02-23T00:32:33;3.33;;;0.65;;
59040;SDS011;44825;53.200;6.448;2024-02-23T00:34:59;7.88;;;1.10;;
59040;SDS011;44825;53.200;6.448;2024-02-23T00:37:25;7.18;;;1.20;;
59040;SDS011;44825;53.200;6.448;2024-02-23T00:39:51;3.97;;;0.50;;
59040;SDS011;44825;53.200;6.448;2024-02-23T00:42:17;5.65;;;1.20;;
59040;SDS011;44825;53.200;6.448;2024-02-23T00:44:44;4.18;;;0.90;;
59040;SDS011;44825;53.200;6.448;2024-02-23T00:47:10;4.43;;;0.82;;
59040;SDS011;44825;53.200;6.448;2024-02-23T00:49:36;6.80;;;1.00;;
59040;SDS011;44825;53.200;6.448;2024-02-23T00:52:02;6.35;;;1.30;;
59040;SDS011;44825;53.200;6.448;2024-02-23T00:54:28;4.65;;;0.90;;
59040;SDS011;44825;53.200;6.448;2024-02-23T00:56:54;4.47;;;1.33;;
59040;SDS011;44825;53.200;6.448;2024-02-23T00:59:20;3.42;;;0.68;;
59040;SDS011;44825;53.200;6.448;2024-02-23T01:01:46;5.90;;;1.08;;
59040;SDS011;44825;53.200;6.448;2024-02-23T01:04:12;7.43;;;1.08;;
59040;SDS011;44825;53.200;6.448;2024-02-23T01:06:38;7.20;;;0.95;;
59040;SDS011;44825;53.200;6.448;2024-02-23T01:09:04;3.08;;;0.80;;
59040;SDS011;44825;53.200;6.448;2024-02-23T01:11:30;6.00;;;1.30;;
59040;SDS011;44825;53.200;6.448;2024-02-23T01:13:56;3.50;;;1.00;;
59040;SDS011;44825;53.200;6.448;2024-02-23T01:16:22;3.50;;;1.02;;
59040;SDS011;44825;53.200;6.448;2024-02-23T01:18:48;6.70;;;1.50;;
59040;SDS011;44825;53.200;6.448;2024-02-23T01:21:14;4.80;;;0.98;;
59040;SDS011;44825;53.200;6.448;2024-02-23T01:23:40;4.35;;;0.65;;
59040;SDS011;44825;53.200;6.448;2024-02-23T01:26:06;9.18;;;1.73;;
59040;SDS011;44825;53.200;6.448;2024-02-23T01:28:33;8.50;;;1.20;;
59040;SDS011;44825;53.200;6.448;2024-02-23T01:30:59;6.80;;;1.05;;
59040;SDS011;44825;53.200;6.448;2024-02-23T01:33:25;7.95;;;1.20;;
59040;SDS011;44825;53.200;6.448;2024-02-23T01:35:51;7.18;;;1.35;;
59040;SDS011;44825;53.200;6.448;2024-02-23T01:38:18;9.80;;;1.60;;
59040;SDS011;44825;53.200;6.448;2024-02-23T01:40:46;7.95;;;1.35;;
59040;SDS011;44825;53.200;6.448;2024-02-23T01:43:15;9.55;;;1.55;;
59040;SDS011;44825;53.200;6.448;2024-02-23T01:45:41;7.18;;;1.45;;
59040;SDS011;44825;53.200;6.448;2024-02-23T01:48:07;8.85;;;1.73;;
59040;SDS011;44825;53.200;6.448;2024-02-23T01:50:33;6.47;;;1.30;;
59040;SDS011;44825;53.200;6.448;2024-02-23T01:53:00;11.18;;;3.15;;
59040;SDS011;44825;53.200;6.448;2024-02-23T01:55:26;10.10;;;1.52;;
59040;SDS011;44825;53.200;6.448;2024-02-23T01:57:53;6.20;;;1.42;;
59040;SDS011;44825;53.200;6.448;2024-02-23T02:00:20;9.10;;;1.75;;
59040;SDS011;44825;53.200;6.448;2024-02-23T02:02:47;8.57;;;1.40;;
59040;SDS011;44825;53.200;6.448;2024-02-23T02:05:13;10.27;;;1.67;;
59040;SDS011;44825;53.200;6.448;2024-02-23T02:07:40;11.30;;;1.80;;
59040;SDS011;44825;53.200;6.448;2024-02-23T02:10:08;8.25;;;1.70;;
59040;SDS011;44825;53.200;6.448;2024-02-23T02:12:34;16.85;;;2.05;;
59040;SDS011;44825;53.200;6.448;2024-02-23T02:15:00;8.27;;;2.00;;
59040;SDS011;44825;53.200;6.448;2024-02-23T02:17:27;7.10;;;1.48;;
59040;SDS011;44825;53.200;6.448;2024-02-23T02:19:53;10.57;;;2.00;;
59040;SDS011;44825;53.200;6.448;2024-02-23T02:22:20;11.48;;;2.35;;
59040;SDS011;44825;53.200;6.448;2024-02-23T02:24:46;11.57;;;2.15;;
59040;SDS011;44825;53.200;6.448;2024-02-23T02:27:13;11.27;;;2.22;;
59040;SDS011;44825;53.200;6.448;2024-02-23T02:29:39;9.07;;;1.90;;
59040;SDS011;44825;53.200;6.448;2024-02-23T02:32:05;9.32;;;2.05;;
59040;SDS011;44825;53.200;6.448;2024-02-23T02:34:32;11.07;;;2.05;;
59040;SDS011;44825;53.200;6.448;2024-02-23T02:36:58;10.68;;;1.98;;
59040;SDS011;44825;53.200;6.448;2024-02-23T02:39:24;10.32;;;1.60;;
59040;SDS011;44825;53.200;6.448;2024-02-23T02:41:50;14.27;;;2.33;;
59040;SDS011;44825;53.200;6.448;2024-02-23T02:44:16;11.98;;;1.60;;
59040;SDS011;44825;53.200;6.448;2024-02-23T02:46:42;9.38;;;1.75;;
59040;SDS011;44825;53.200;6.448;2024-02-23T02:49:08;13.07;;;2.20;;
59040;SDS011;44825;53.200;6.448;2024-02-23T02:51:34;11.70;;;2.65;;
59040;SDS011;44825;53.200;6.448;2024-02-23T02:54:00;8.18;;;1.77;;
59040;SDS011;44825;53.200;6.448;2024-02-23T02:56:26;11.68;;;1.90;;
59040;SDS011;44825;53.200;6.448;2024-02-23T02:58:52;9.05;;;1.70;;
59040;SDS011;44825;53.200;6.448;2024-02-23T03:01:19;10.98;;;1.80;;
59040;SDS011;44825;53.200;6.448;2024-02-23T03:03:45;8.82;;;1.42;;
59040;SDS011;44825;53.200;6.448;2024-02-23T03:06:11;9.85;;;2.00;;
59040;SDS011;44825;53.200;6.448;2024-02-23T03:08:37;18.63;;;2.75;;
59040;SDS011;44825;53.200;6.448;2024-02-23T03:11:03;13.70;;;2.78;;
59040;SDS011;44825;53.200;6.448;2024-02-23T03:13:29;15.57;;;2.08;;
59040;SDS011;44825;53.200;6.448;2024-02-23T03:15:56;12.50;;;2.05;;
59040;SDS011;44825;53.200;6.448;2024-02-23T03:18:22;10.95;;;1.75;;
59040;SDS011;44825;53.200;6.448;2024-02-23T03:20:48;12.60;;;2.03;;
59040;SDS011;44825;53.200;6.448;2024-02-23T03:23:15;13.50;;;2.17;;
59040;SDS011;44825;53.200;6.448;2024-02-23T03:25:41;14.45;;;2.13;;
59040;SDS011;44825;53.200;6.448;2024-02-23T03:28:07;9.30;;;1.90;;
59040;SDS011;44825;53.200;6.448;2024-02-23T03:30:33;9.32;;;1.80;;
59040;SDS011;44825;53.200;6.448;2024-02-23T03:32:59;13.00;;;1.65;;
59040;SDS011;44825;53.200;6.448;2024-02-23T03:35:25;6.55;;;1.27;;
59040;SDS011;44825;53.200;6.448;2024-02-23T03:37:51;7.63;;;1.80;;
59040;SDS011;44825;53.200;6.448;2024-02-23T03:40:17;11.02;;;1.77;;
59040;SDS011;44825;53.200;6.448;2024-02-23T03:42:44;9.30;;;1.63;;
59040;SDS011;44825;53.200;6.448;2024-02-23T03:45:10;11.68;;;1.42;;
59040;SDS011;44825;53.200;6.448;2024-02-23T03:47:36;10.70;;;1.95;;
59040;SDS011;44825;53.200;6.448;2024-02-23T03:50:02;17.08;;;1.67;;
59040;SDS011;44825;53.200;6.448;2024-02-23T03:52:28;10.98;;;1.42;;
59040;SDS011;44825;53.200;6.448;2024-02-23T03:54:54;9.32;;;1.33;;
59040;SDS011;44825;53.200;6.448;2024-02-23T03:57:20;9.40;;;1.23;;
59040;SDS011;44825;53.200;6.448;2024-02-23T03:59:56;8.00;;;1.50;;
59040;SDS011;44825;53.200;6.448;2024-02-23T04:02:22;10.65;;;1.45;;
59040;SDS011;44825;53.200;6.448;2024-02-23T04:04:49;8.63;;;1.90;;
59040;SDS011;44825;53.200;6.448;2024-02-23T04:07:15;15.02;;;2.50;;
59040;SDS011;44825;53.200;6.448;2024-02-23T04:09:41;13.10;;;3.22;;
59040;SDS011;44825;53.200;6.448;2024-02-23T04:12:07;10.88;;;1.42;;
59040;SDS011;44825;53.200;6.448;2024-02-23T04:14:33;11.23;;;1.77;;
59040;SDS011;44825;53.200;6.448;2024-02-23T04:17:02;8.65;;;1.63;;
59040;SDS011;44825;53.200;6.448;2024-02-23T04:19:28;7.05;;;1.75;;
59040;SDS011;44825;53.200;6.448;2024-02-23T04:21:54;15.35;;;2.25;;
59040;SDS011;44825;53.200;6.448;2024-02-23T04:24:20;9.48;;;1.50;;
59040;SDS011;44825;53.200;6.448;2024-02-23T04:26:46;15.77;;;4.22;;
59040;SDS011;44825;53.200;6.448;2024-02-23T04:29:12;13.68;;;2.08;;
59040;SDS011;44825;53.200;6.448;2024-02-23T04:31:38;8.43;;;1.67;;
59040;SDS011;44825;53.200;6.448;2024-02-23T04:34:04;13.40;;;1.40;;
59040;SDS011;44825;53.200;6.448;2024-02-23T04:36:30;9.50;;;1.67;;
59040;SDS011;44825;53.200;6.448;2024-02-23T04:38:56;9.77;;;1.40;;
59040;SDS011;44825;53.200;6.448;2024-02-23T04:41:22;10.73;;;2.10;;
59040;SDS011;44825;53.200;6.448;2024-02-23T04:43:49;8.90;;;2.00;;
59040;SDS011;44825;53.200;6.448;2024-02-23T04:46:16;12.82;;;1.65;;
59040;SDS011;44825;53.200;6.448;2024-02-23T04:48:42;6.15;;;1.33;;
59040;SDS011;44825;53.200;6.448;2024-02-23T04:51:08;10.65;;;1.95;;
59040;SDS011;44825;53.200;6.448;2024-02-23T04:53:37;7.72;;;1.55;;
59040;SDS011;44825;53.200;6.448;2024-02-23T04:56:03;8.38;;;1.83;;
59040;SDS011;44825;53.200;6.448;2024-02-23T04:58:29;8.70;;;1.10;;
59040;SDS011;44825;53.200;6.448;2024-02-23T05:00:55;7.85;;;1.60;;
59040;SDS011;44825;53.200;6.448;2024-02-23T05:03:21;9.23;;;1.73;;
59040;SDS011;44825;53.200;6.448;2024-02-23T05:05:48;10.95;;;1.40;;
59040;SDS011;44825;53.200;6.448;2024-02-23T05:08:18;9.68;;;2.05;;
59040;SDS011;44825;53.200;6.448;2024-02-23T05:10:45;10.88;;;2.00;;
59040;SDS011;44825;53.200;6.448;2024-02-23T05:13:11;11.20;;;1.52;;
59040;SDS011;44825;53.200;6.448;2024-02-23T05:15:37;11.38;;;1.38;;
59040;SDS011;44825;53.200;6.448;2024-02-23T05:18:03;11.15;;;1.60;;
59040;SDS011;44825;53.200;6.448;2024-02-23T05:20:30;10.38;;;1.70;;
59040;SDS011;44825;53.200;6.448;2024-02-23T05:22:56;5.15;;;0.98;;
59040;SDS011;44825;53.200;6.448;2024-02-23T05:25:22;14.85;;;1.88;;
59040;SDS011;44825;53.200;6.448;2024-02-23T05:27:50;10.90;;;1.70;;
59040;SDS011;44825;53.200;6.448;2024-02-23T05:30:16;7.80;;;2.78;;
59040;SDS011;44825;53.200;6.448;2024-02-23T05:32:42;12.27;;;1.70;;
59040;SDS011;44825;53.200;6.448;2024-02-23T05:35:08;12.95;;;1.35;;
59040;SDS011;44825;53.200;6.448;2024-02-23T05:37:35;9.57;;;1.30;;
59040;SDS011;44825;53.200;6.448;2024-02-23T05:40:02;8.77;;;1.85;;
59040;SDS011;44825;53.200;6.448;2024-02-23T05:42:31;6.97;;;1.48;;
59040;SDS011;44825;53.200;6.448;2024-02-23T05:44:57;11.40;;;1.63;;
59040;SDS011;44825;53.200;6.448;2024-02-23T05:47:23;10.63;;;1.98;;
59040;SDS011;44825;53.200;6.448;2024-02-23T05:49:50;7.72;;;1.38;;
59040;SDS011;44825;53.200;6.448;2024-02-23T05:52:16;7.88;;;1.90;;
59040;SDS011;44825;53.200;6.448;2024-02-23T05:54:42;9.85;;;1.75;;
59040;SDS011;44825;53.200;6.448;2024-02-23T05:57:08;9.05;;;1.50;;
59040;SDS011;44825;53.200;6.448;2024-02-23T05:59:34;8.10;;;2.17;;
59040;SDS011;44825;53.200;6.448;2024-02-23T06:02:00;5.78;;;1.75;;
59040;SDS011;44825;53.200;6.448;2024-02-23T06:04:26;7.50;;;2.22;;
59040;SDS011;44825;53.200;6.448;2024-02-23T06:06:52;7.60;;;1.98;;
59040;SDS011;44825;53.200;6.448;2024-02-23T06:09:18;8.52;;;2.55;;
59040;SDS011;44825;53.200;6.448;2024-02-23T06:11:45;9.02;;;2.72;;
59040;SDS011;44825;53.200;6.448;2024-02-23T06:14:11;9.32;;;2.88;;
59040;SDS011;44825;53.200;6.448;2024-02-23T06:16:37;12.82;;;2.83;;
59040;SDS011;44825;53.200;6.448;2024-02-23T06:19:03;9.60;;;3.17;;
59040;SDS011;44825;53.200;6.448;2024-02-23T06:21:29;11.23;;;3.60;;
59040;SDS011;44825;53.200;6.448;2024-02-23T06:23:55;14.88;;;3.28;;
59040;SDS011;44825;53.200;6.448;2024-02-23T06:26:21;12.52;;;3.55;;
59040;SDS011;44825;53.200;6.448;2024-02-23T06:28:47;12.50;;;3.47;;
59040;SDS011;44825;53.200;6.448;2024-02-23T06:31:14;12.25;;;3.47;;
59040;SDS011;44825;53.200;6.448;2024-02-23T06:33:40;11.13;;;3.88;;
59040;SDS011;44825;53.200;6.448;2024-02-23T06:36:06;10.93;;;3.33;;
59040;SDS011;44825;53.200;6.448;2024-02-23T06:38:33;9.10;;;4.18;;
59040;SDS011;44825;53.200;6.448;2024-02-23T06:40:59;14.02;;;3.65;;
59040;SDS011;44825;53.200;6.448;2024-02-23T06:43:25;10.13;;;3.40;;
59040;SDS011;44825;53.200;6.448;2024-02-23T06:45:51;10.65;;;3.92;;
59040;SDS011;44825;53.200;6.448;2024-02-23T06:48:17;14.52;;;4.15;;
59040;SDS011;44825;53.200;6.448;2024-02-23T06:50:43;8.93;;;3.58;;
59040;SDS011;44825;53.200;6.448;2024-02-23T06:53:09;9.65;;;3.30;;
59040;SDS011;44825;53.200;6.448;2024-02-23T06:55:36;13.43;;;3.65;;
59040;SDS011;44825;53.200;6.448;2024-02-23T06:58:02;12.57;;;3.92;;
59040;SDS011;44825;53.200;6.448;2024-02-23T07:00:30;13.00;;;3.88;;
59040;SDS011;44825;53.200;6.448;2024-02-23T07:02:56;15.35;;;4.45;;
59040;SDS011;44825;53.200;6.448;2024-02-23T07:05:24;11.25;;;4.43;;
59040;SDS011;44825;53.200;6.448;2024-02-23T07:07:50;12.88;;;4.13;;
59040;SDS011;44825;53.200;6.448;2024-02-23T07:10:16;15.73;;;5.07;;
59040;SDS011;44825;53.200;6.448;2024-02-23T07:12:43;14.52;;;4.80;;
59040;SDS011;44825;53.200;6.448;2024-02-23T07:15:09;12.85;;;5.43;;
59040;SDS011;44825;53.200;6.448;2024-02-23T07:17:35;10.35;;;4.60;;
59040;SDS011;44825;53.200;6.448;2024-02-23T07:20:01;12.27;;;4.72;;
59040;SDS011;44825;53.200;6.448;2024-02-23T07:22:31;13.27;;;4.90;;
59040;SDS011;44825;53.200;6.448;2024-02-23T07:24:57;10.82;;;5.13;;
59040;SDS011;44825;53.200;6.448;2024-02-23T07:27:23;13.85;;;5.40;;
59040;SDS011;44825;53.200;6.448;2024-02-23T07:29:49;11.98;;;5.13;;
59040;SDS011;44825;53.200;6.448;2024-02-23T07:32:15;9.98;;;4.90;;
59040;SDS011;44825;53.200;6.448;2024-02-23T07:34:42;12.75;;;4.38;;
59040;SDS011;44825;53.200;6.448;2024-02-23T07:37:08;11.63;;;4.28;;
59040;SDS011;44825;53.200;6.448;2024-02-23T07:39:34;11.18;;;3.72;;
59040;SDS011;44825;53.200;6.448;2024-02-23T07:42:00;9.88;;;4.05;;
59040;SDS011;44825;53.200;6.448;2024-02-23T07:44:27;9.85;;;3.75;;
59040;SDS011;44825;53.200;6.448;2024-02-23T07:46:53;10.52;;;3.67;;
59040;SDS011;44825;53.200;6.448;2024-02-23T07:49:20;11.75;;;3.03;;
59040;SDS011;44825;53.200;6.448;2024-02-23T07:51:47;7.70;;;3.17;;
59040;SDS011;44825;53.200;6.448;2024-02-23T07:54:13;9.88;;;3.17;;
59040;SDS011;44825;53.200;6.448;2024-02-23T07:56:39;12.82;;;3.92;;
59040;SDS011;44825;53.200;6.448;2024-02-23T07:59:05;9.52;;;3.17;;
59040;SDS011;44825;53.200;6.448;2024-02-23T08:01:31;10.95;;;3.30;;
59040;SDS011;44825;53.200;6.448;2024-02-23T08:03:57;7.68;;;3.03;;
59040;SDS011;44825;53.200;6.448;2024-02-23T08:06:23;14.40;;;3.70;;
59040;SDS011;44825;53.200;6.448;2024-02-23T08:08:50;7.72;;;3.15;;
59040;SDS011;44825;53.200;6.448;2024-02-23T08:11:18;9.77;;;2.95;;
59040;SDS011;44825;53.200;6.448;2024-02-23T08:13:44;10.98;;;4.10;;
59040;SDS011;44825;53.200;6.448;2024-02-23T08:16:10;11.50;;;3.20;;
59040;SDS011;44825;53.200;6.448;2024-02-23T08:18:36;8.30;;;3.15;;
59040;SDS011;44825;53.200;6.448;2024-02-23T08:21:02;6.82;;;2.38;;
59040;SDS011;44825;53.200;6.448;2024-02-23T08:23:30;8.02;;;3.38;;
59040;SDS011;44825;53.200;6.448;2024-02-23T08:25:56;10.10;;;3.00;;
59040;SDS011;44825;53.200;6.448;2024-02-23T08:28:23;6.15;;;2.65;;
59040;SDS011;44825;53.200;6.448;2024-02-23T08:30:49;6.50;;;2.45;;
59040;SDS011;44825;53.200;6.448;2024-02-23T08:33:15;7.10;;;2.55;;
59040;SDS011;44825;53.200;6.448;2024-02-23T08:35:41;10.07;;;2.67;;
59040;SDS011;44825;53.200;6.448;2024-02-23T08:38:07;10.73;;;2.35;;
59040;SDS011;44825;53.200;6.448;2024-02-23T08:40:34;10.98;;;2.60;;
59040;SDS011;44825;53.200;6.448;2024-02-23T08:43:00;6.85;;;2.20;;
59040;SDS011;44825;53.200;6.448;2024-02-23T08:45:26;4.90;;;2.00;;
59040;SDS011;44825;53.200;6.448;2024-02-23T08:47:53;4.90;;;1.80;;
59040;SDS011;44825;53.200;6.448;2024-02-23T08:50:19;8.95;;;2.10;;
59040;SDS011;44825;53.200;6.448;2024-02-23T08:52:45;10.57;;;2.20;;
59040;SDS011;44825;53.200;6.448;2024-02-23T08:55:11;4.68;;;1.65;;
59040;SDS011;44825;53.200;6.448;2024-02-23T08:57:37;7.38;;;2.22;;
59040;SDS011;44825;53.200;6.448;2024-02-23T09:00:04;6.40;;;1.52;;
59040;SDS011;44825;53.200;6.448;2024-02-23T09:02:30;4.28;;;1.48;;
59040;SDS011;44825;53.200;6.448;2024-02-23T09:04:57;7.55;;;2.42;;
59040;SDS011;44825;53.200;6.448;2024-02-23T09:07:23;6.07;;;1.55;;
59040;SDS011;44825;53.200;6.448;2024-02-23T09:09:50;6.55;;;1.83;;
59040;SDS011;44825;53.200;6.448;2024-02-23T09:12:16;10.65;;;1.58;;
59040;SDS011;44825;53.200;6.448;2024-02-23T09:14:42;8.02;;;1.92;;
59040;SDS011;44825;53.200;6.448;2024-02-23T09:17:09;6.72;;;1.55;;
59040;SDS011;44825;53.200;6.448;2024-02-23T09:19:36;5.70;;;1.58;;
59040;SDS011;44825;53.200;6.448;2024-02-23T09:22:02;8.50;;;1.50;;
59040;SDS011;44825;53.200;6.448;2024-02-23T09:24:28;6.57;;;1.38;;
59040;SDS011;44825;53.200;6.448;2024-02-23T09:26:54;5.20;;;1.30;;
59040;SDS011;44825;53.200;6.448;2024-02-23T09:29:21;5.47;;;1.45;;
59040;SDS011;44825;53.200;6.448;2024-02-23T09:31:47;5.20;;;1.63;;
59040;SDS011;44825;53.200;6.448;2024-02-23T09:34:13;7.15;;;1.48;;
59040;SDS011;44825;53.200;6.448;2024-02-23T09:36:40;8.13;;;2.08;;
59040;SDS011;44825;53.200;6.448;2024-02-23T09:39:06;5.50;;;2.15;;
59040;SDS011;44825;53.200;6.448;2024-02-23T09:41:32;7.55;;;1.65;;
59040;SDS011;44825;53.200;6.448;2024-02-23T09:44:00;6.40;;;1.50;;
59040;SDS011;44825;53.200;6.448;2024-02-23T09:46:27;7.68;;;1.50;;
59040;SDS011;44825;53.200;6.448;2024-02-23T09:48:53;5.55;;;1.50;;
59040;SDS011;44825;53.200;6.448;2024-02-23T09:51:20;7.05;;;1.58;;
59040;SDS011;44825;53.200;6.448;2024-02-23T09:53:49;6.88;;;1.90;;
59040;SDS011;44825;53.200;6.448;2024-02-23T09:56:19;5.43;;;1.30;;
59040;SDS011;44825;53.200;6.448;2024-02-23T09:58:47;6.43;;;1.77;;
59040;SDS011;44825;53.200;6.448;2024-02-23T10:01:13;5.68;;;1.20;;
59040;SDS011;44825;53.200;6.448;2024-02-23T10:03:43;4.75;;;1.50;;
59040;SDS011;44825;53.200;6.448;2024-02-23T10:06:10;6.88;;;1.33;;
59040;SDS011;44825;53.200;6.448;2024-02-23T10:08:36;10.88;;;2.67;;
59040;SDS011;44825;53.200;6.448;2024-02-23T10:11:02;6.50;;;1.83;;
59040;SDS011;44825;53.200;6.448;2024-02-23T10:13:29;6.45;;;1.48;;
59040;SDS011;44825;53.200;6.448;2024-02-23T10:15:55;9.23;;;1.63;;
59040;SDS011;44825;53.200;6.448;2024-02-23T10:18:21;5.25;;;1.40;;
59040;SDS011;44825;53.200;6.448;2024-02-23T10:20:48;6.95;;;2.20;;
59040;SDS011;44825;53.200;6.448;2024-02-23T10:23:15;7.68;;;1.98;;
59040;SDS011;44825;53.200;6.448;2024-02-23T10:25:41;7.05;;;1.73;;
59040;SDS011;44825;53.200;6.448;2024-02-23T10:28:07;6.30;;;1.00;;
59040;SDS011;44825;53.200;6.448;2024-02-23T10:30:36;4.50;;;1.30;;
59040;SDS011;44825;53.200;6.448;2024-02-23T10:33:03;5.90;;;1.23;;
59040;SDS011;44825;53.200;6.448;2024-02-23T10:35:31;6.32;;;1.15;;
59040;SDS011;44825;53.200;6.448;2024-02-23T10:38:05;5.18;;;1.40;;
59040;SDS011;44825;53.200;6.448;2024-02-23T10:40:31;14.00;;;1.38;;
59040;SDS011;44825;53.200;6.448;2024-02-23T10:42:59;7.90;;;1.40;;
59040;SDS011;44825;53.200;6.448;2024-02-23T10:45:28;7.35;;;1.20;;
59040;SDS011;44825;53.200;6.448;2024-02-23T10:47:54;6.45;;;1.88;;
59040;SDS011;44825;53.200;6.448;2024-02-23T10:50:21;9.88;;;1.50;;
59040;SDS011;44825;53.200;6.448;2024-02-23T10:52:47;8.07;;;1.73;;
59040;SDS011;44825;53.200;6.448;2024-02-23T10:55:14;4.05;;;1.23;;
59040;SDS011;44825;53.200;6.448;2024-02-23T10:57:41;9.02;;;1.50;;
59040;SDS011;44825;53.200;6.448;2024-02-23T11:00:08;6.03;;;1.00;;
59040;SDS011;44825;53.200;6.448;2024-02-23T11:02:53;6.50;;;1.17;;
59040;SDS011;44825;53.200;6.448;2024-02-23T11:05:20;2.95;;;0.80;;
59040;SDS011;44825;53.200;6.448;2024-02-23T11:07:47;3.50;;;0.90;;
59040;SDS011;44825;53.200;6.448;2024-02-23T11:10:16;6.85;;;1.40;;
59040;SDS011;44825;53.200;6.448;2024-02-23T11:12:44;3.00;;;0.95;;
59040;SDS011;44825;53.200;6.448;2024-02-23T11:15:32;5.22;;;1.10;;
59040;SDS011;44825;53.200;6.448;2024-02-23T11:18:04;7.53;;;1.20;;
59040;SDS011;44825;53.200;6.448;2024-02-23T11:20:34;4.40;;;0.88;;
59040;SDS011;44825;53.200;6.448;2024-02-23T11:23:00;7.88;;;1.27;;
59040;SDS011;44825;53.200;6.448;2024-02-23T11:25:26;3.92;;;1.08;;
59040;SDS011;44825;53.200;6.448;2024-02-23T11:27:53;6.30;;;1.25;;
59040;SDS011;44825;53.200;6.448;2024-02-23T11:30:19;6.22;;;1.00;;
59040;SDS011;44825;53.200;6.448;2024-02-23T11:32:45;4.47;;;1.13;;
59040;SDS011;44825;53.200;6.448;2024-02-23T11:35:19;4.95;;;1.00;;
59040;SDS011;44825;53.200;6.448;2024-02-23T11:40:16;8.77;;;1.42;;
59040;SDS011;44825;53.200;6.448;2024-02-23T11:42:43;5.32;;;0.98;;
59040;SDS011;44825;53.200;6.448;2024-02-23T11:45:09;6.57;;;1.10;;
59040;SDS011;44825;53.200;6.448;2024-02-23T11:47:36;4.93;;;0.98;;
59040;SDS011;44825;53.200;6.448;2024-02-23T11:50:02;9.48;;;1.88;;
59040;SDS011;44825;53.200;6.448;2024-02-23T11:52:29;3.60;;;1.25;;
59040;SDS011;44825;53.200;6.448;2024-02-23T11:54:55;8.75;;;1.17;;
59040;SDS011;44825;53.200;6.448;2024-02-23T11:57:21;5.03;;;1.05;;
59040;SDS011;44825;53.200;6.448;2024-02-23T11:59:47;9.35;;;1.13;;
59040;SDS011;44825;53.200;6.448;2024-02-23T12:02:13;6.93;;;1.30;;
59040;SDS011;44825;53.200;6.448;2024-02-23T12:04:40;6.95;;;1.40;;
59040;SDS011;44825;53.200;6.448;2024-02-23T12:07:06;6.65;;;1.38;;
59040;SDS011;44825;53.200;6.448;2024-02-23T12:09:32;4.18;;;1.00;;
59040;SDS011;44825;53.200;6.448;2024-02-23T12:11:58;4.88;;;1.08;;
59040;SDS011;44825;53.200;6.448;2024-02-23T12:14:24;6.15;;;1.13;;
59040;SDS011;44825;53.200;6.448;2024-02-23T12:16:51;5.63;;;1.60;;
59040;SDS011;44825;53.200;6.448;2024-02-23T12:19:17;6.72;;;1.50;;
59040;SDS011;44825;53.200;6.448;2024-02-23T12:21:46;6.25;;;1.60;;
59040;SDS011;44825;53.200;6.448;2024-02-23T12:24:12;5.53;;;1.38;;
59040;SDS011;44825;53.200;6.448;2024-02-23T12:26:38;7.40;;;1.83;;
59040;SDS011;44825;53.200;6.448;2024-02-23T12:29:05;9.07;;;1.20;;
59040;SDS011;44825;53.200;6.448;2024-02-23T12:31:31;5.07;;;1.45;;
59040;SDS011;44825;53.200;6.448;2024-02-23T12:33:58;6.22;;;1.40;;
59040;SDS011;44825;53.200;6.448;2024-02-23T12:36:24;6.57;;;1.45;;
59040;SDS011;44825;53.200;6.448;2024-02-23T12:38:50;4.55;;;0.77;;
59040;SDS011;44825;53.200;6.448;2024-02-23T12:41:16;8.15;;;1.55;;
59040;SDS011;44825;53.200;6.448;2024-02-23T12:43:42;6.47;;;1.17;;
59040;SDS011;44825;53.200;6.448;2024-02-23T12:46:08;4.47;;;1.17;;
59040;SDS011;44825;53.200;6.448;2024-02-23T12:48:36;5.28;;;1.33;;
59040;SDS011;44825;53.200;6.448;2024-02-23T12:51:03;5.05;;;1.40;;
59040;SDS011;44825;53.200;6.448;2024-02-23T12:53:30;4.72;;;1.17;;
59040;SDS011;44825;53.200;6.448;2024-02-23T12:55:57;4.68;;;1.02;;
59040;SDS011;44825;53.200;6.448;2024-02-23T12:58:24;5.22;;;1.20;;
59040;SDS011;44825;53.200;6.448;2024-02-23T13:00:50;4.85;;;1.10;;
59040;SDS011;44825;53.200;6.448;2024-02-23T13:03:16;4.78;;;1.02;;
59040;SDS011;44825;53.200;6.448;2024-02-23T13:05:42;10.80;;;1.45;;
59040;SDS011;44825;53.200;6.448;2024-02-23T13:08:08;3.47;;;0.95;;
59040;SDS011;44825;53.200;6.448;2024-02-23T13:10:34;6.13;;;1.83;;
59040;SDS011;44825;53.200;6.448;2024-02-23T13:13:00;6.78;;;1.30;;
59040;SDS011;44825;53.200;6.448;2024-02-23T13:15:26;6.03;;;1.40;;
59040;SDS011;44825;53.200;6.448;2024-02-23T13:17:52;3.65;;;1.10;;
59040;SDS011;44825;53.200;6.448;2024-02-23T13:20:19;4.88;;;1.20;;
59040;SDS011;44825;53.200;6.448;2024-02-23T13:22:45;6.88;;;1.48;;
59040;SDS011;44825;53.200;6.448;2024-02-23T13:25:11;6.25;;;1.50;;
59040;SDS011;44825;53.200;6.448;2024-02-23T13:27:37;4.35;;;0.98;;
59040;SDS011;44825;53.200;6.448;2024-02-23T13:30:03;5.32;;;1.35;;
59040;SDS011;44825;53.200;6.448;2024-02-23T13:32:29;9.85;;;1.90;;
59040;SDS011;44825;53.200;6.448;2024-02-23T13:34:55;4.32;;;1.00;;
59040;SDS011;44825;53.200;6.448;2024-02-23T13:37:21;7.72;;;1.75;;
59040;SDS011;44825;53.200;6.448;2024-02-23T13:39:47;6.68;;;1.70;;
59040;SDS011;44825;53.200;6.448;2024-02-23T13:42:13;4.75;;;1.10;;
59040;SDS011;44825;53.200;6.448;2024-02-23T13:44:39;6.55;;;1.25;;
59040;SDS011;44825;53.200;6.448;2024-02-23T13:47:06;11.60;;;1.90;;
59040;SDS011;44825;53.200;6.448;2024-02-23T13:49:32;5.35;;;1.13;;
59040;SDS011;44825;53.200;6.448;2024-02-23T13:51:58;7.25;;;1.52;;
59040;SDS011;44825;53.200;6.448;2024-02-23T13:54:24;4.53;;;1.15;;
59040;SDS011;44825;53.200;6.448;2024-02-23T13:56:50;5.50;;;1.60;;
59040;SDS011;44825;53.200;6.448;2024-02-23T13:59:16;6.93;;;1.27;;
59040;SDS011;44825;53.200;6.448;2024-02-23T14:01:42;7.35;;;1.73;;
59040;SDS011;44825;53.200;6.448;2024-02-23T14:04:10;5.10;;;1.40;;
59040;SDS011;44825;53.200;6.448;2024-02-23T14:06:36;5.15;;;1.23;;
59040;SDS011;44825;53.200;6.448;2024-02-23T14:09:02;8.40;;;1.67;;
59040;SDS011;44825;53.200;6.448;2024-02-23T14:11:29;5.47;;;1.52;;
59040;SDS011;44825;53.200;6.448;2024-02-23T14:13:55;9.95;;;1.70;;
59040;SDS011;44825;53.200;6.448;2024-02-23T14:16:21;4.97;;;1.58;;
59040;SDS011;44825;53.200;6.448;2024-02-23T14:18:48;11.00;;;2.22;;
59040;SDS011;44825;53.200;6.448;2024-02-23T14:21:15;4.40;;;1.52;;
59040;SDS011;44825;53.200;6.448;2024-02-23T14:23:41;5.60;;;1.52;;
59040;SDS011;44825;53.200;6.448;2024-02-23T14:26:08;5.80;;;1.60;;
59040;SDS011;44825;53.200;6.448;2024-02-23T14:28:34;4.80;;;1.25;;
59040;SDS011;44825;53.200;6.448;2024-02-23T14:31:00;9.02;;;1.40;;
59040;SDS011;44825;53.200;6.448;2024-02-23T14:33:26;5.22;;;1.30;;
59040;SDS011;44825;53.200;6.448;2024-02-23T14:35:52;4.60;;;0.90;;
59040;SDS011;44825;53.200;6.448;2024-02-23T14:38:18;6.45;;;0.90;;
59040;SDS011;44825;53.200;6.448;2024-02-23T14:40:44;3.33;;;0.70;;